Flight Sim Network - KRHP Airport Info

    KRHP (Western Carolina Regional Airport)  Login to use Map Selector
   

  ALLIANCE AIRCRAFT AT THIS AIRPORT
Tail Number Aircraft ModelFlightsRunwayRangeCapacityPaxSale
N911BPBeechcraft King Air 350 03300ft1583nm2604Kg14No
  RUNWAY INFORMATION    |    Airport Elevation : 1697ft    |    LAT : 35.19520187  /  LON : -83.86299896
Runway Number 08 / 26 Runway Width 75' Runway Length 5500'
Lighted Runway Yes Runway StatusOpen Runway Surface Asphalt
  CLOSE ALTERNATE AIRPORTS
ICAODistanceAirport NameLongest RWRW SurfaceMAP
46A21NMBlairsville3800FTAsphalt
1A522NMMacon Co4400FTAsphalt
1A326NMCampbell3500FTAsphalt
24A33NMJackson Co3004FTAsphalt
KMNV33NMMonroe County Airport3502FTAsphalt
KMMI36NMMcMinn County Airport5006FTAsphalt
KTYS37NMMcGhee Tyson Airport9009FTConcrete
9A038NMLumpkin Co-Wimpy's3090FTAsphalt
KGKT43NMGatlinburg-Pigeon Forge Airport5506FTAsphalt
KAJR44NMHabersham County Airport5500FTAsphalt
  AIRPORT WEATHER
78°F | 26°C
Temperature
71%
Humidity
30" | 0mb
Pressure
10sm
Visibility
VFR
Flight Rules
SCT @ 9500ft
Initial Clouds
FAIR
Conditions
Wind Info
7/23/24 17:09Z
Updated

KRHP 231709Z AUTO 26005KT 10SM SCT095 OVC120 26/20 A3018 RMK AO2 T02600204
  AIRPORT CHARTS
Chart TypeChart Name & Link
MINTAKEOFF MINIMUMS
IAPRNAV (GPS) RWY 08
  AIRPORT FREQUENCIES
NameFrequency
CLEARANCE119.670
UNICOM122.800
MULTICOM122.800

Powered by Virtual Airlines Manager